sensor_id;sensor_type;location;lat;lon;timestamp;P1;durP1;ratioP1;P2;durP2;ratioP2
12112;SDS011;6120;52.250;8.478;2023-12-20T00:01:06;20.20;;;6.55;;
12112;SDS011;6120;52.250;8.478;2023-12-20T00:03:33;22.40;;;7.57;;
12112;SDS011;6120;52.250;8.478;2023-12-20T00:06:08;20.50;;;6.05;;
12112;SDS011;6120;52.250;8.478;2023-12-20T00:08:35;18.83;;;6.18;;
12112;SDS011;6120;52.250;8.478;2023-12-20T00:11:02;15.07;;;5.85;;
12112;SDS011;6120;52.250;8.478;2023-12-20T00:13:28;19.27;;;6.20;;
12112;SDS011;6120;52.250;8.478;2023-12-20T00:15:55;14.32;;;6.05;;
12112;SDS011;6120;52.250;8.478;2023-12-20T00:18:22;21.25;;;6.13;;
12112;SDS011;6120;52.250;8.478;2023-12-20T00:20:48;15.00;;;5.18;;
12112;SDS011;6120;52.250;8.478;2023-12-20T00:23:15;17.13;;;5.78;;
12112;SDS011;6120;52.250;8.478;2023-12-20T00:25:42;19.05;;;5.55;;
12112;SDS011;6120;52.250;8.478;2023-12-20T00:28:08;15.85;;;5.80;;
12112;SDS011;6120;52.250;8.478;2023-12-20T00:30:35;16.13;;;6.68;;
12112;SDS011;6120;52.250;8.478;2023-12-20T00:33:02;13.88;;;6.00;;
12112;SDS011;6120;52.250;8.478;2023-12-20T00:35:29;13.30;;;5.55;;
12112;SDS011;6120;52.250;8.478;2023-12-20T00:37:56;12.73;;;5.15;;
12112;SDS011;6120;52.250;8.478;2023-12-20T00:40:24;12.77;;;5.60;;
12112;SDS011;6120;52.250;8.478;2023-12-20T00:42:51;13.23;;;5.05;;
12112;SDS011;6120;52.250;8.478;2023-12-20T00:45:18;15.35;;;4.60;;
12112;SDS011;6120;52.250;8.478;2023-12-20T00:47:45;20.15;;;4.90;;
12112;SDS011;6120;52.250;8.478;2023-12-20T00:50:12;15.77;;;3.80;;
12112;SDS011;6120;52.250;8.478;2023-12-20T00:52:39;15.90;;;4.38;;
12112;SDS011;6120;52.250;8.478;2023-12-20T00:55:06;19.88;;;4.43;;
12112;SDS011;6120;52.250;8.478;2023-12-20T00:57:33;16.52;;;3.80;;
12112;SDS011;6120;52.250;8.478;2023-12-20T01:00:00;16.17;;;3.58;;
12112;SDS011;6120;52.250;8.478;2023-12-20T01:02:27;12.07;;;3.17;;
12112;SDS011;6120;52.250;8.478;2023-12-20T01:04:54;14.85;;;3.70;;
12112;SDS011;6120;52.250;8.478;2023-12-20T01:07:20;17.92;;;4.38;;
12112;SDS011;6120;52.250;8.478;2023-12-20T01:09:47;13.82;;;3.35;;
12112;SDS011;6120;52.250;8.478;2023-12-20T01:12:14;16.83;;;3.38;;
12112;SDS011;6120;52.250;8.478;2023-12-20T01:14:41;10.45;;;3.13;;
12112;SDS011;6120;52.250;8.478;2023-12-20T01:17:08;20.27;;;3.38;;
12112;SDS011;6120;52.250;8.478;2023-12-20T01:19:34;12.25;;;3.72;;
12112;SDS011;6120;52.250;8.478;2023-12-20T01:22:01;11.32;;;3.90;;
12112;SDS011;6120;52.250;8.478;2023-12-20T01:24:28;13.32;;;3.45;;
12112;SDS011;6120;52.250;8.478;2023-12-20T01:26:55;12.40;;;3.42;;
12112;SDS011;6120;52.250;8.478;2023-12-20T01:29:21;17.25;;;3.95;;
12112;SDS011;6120;52.250;8.478;2023-12-20T01:31:48;17.88;;;4.00;;
12112;SDS011;6120;52.250;8.478;2023-12-20T01:34:15;16.08;;;3.67;;
12112;SDS011;6120;52.250;8.478;2023-12-20T01:36:42;12.15;;;4.32;;
12112;SDS011;6120;52.250;8.478;2023-12-20T01:39:09;13.57;;;4.05;;
12112;SDS011;6120;52.250;8.478;2023-12-20T01:41:50;12.50;;;3.80;;
12112;SDS011;6120;52.250;8.478;2023-12-20T01:44:17;16.88;;;3.47;;
12112;SDS011;6120;52.250;8.478;2023-12-20T01:46:44;14.70;;;4.28;;
12112;SDS011;6120;52.250;8.478;2023-12-20T01:49:11;12.20;;;3.60;;
12112;SDS011;6120;52.250;8.478;2023-12-20T01:51:38;11.20;;;3.38;;
12112;SDS011;6120;52.250;8.478;2023-12-20T01:54:05;13.05;;;3.85;;
12112;SDS011;6120;52.250;8.478;2023-12-20T01:56:32;11.25;;;3.60;;
12112;SDS011;6120;52.250;8.478;2023-12-20T01:58:59;12.30;;;3.30;;
12112;SDS011;6120;52.250;8.478;2023-12-20T02:01:27;15.02;;;3.55;;
12112;SDS011;6120;52.250;8.478;2023-12-20T02:03:55;17.55;;;2.88;;
12112;SDS011;6120;52.250;8.478;2023-12-20T02:06:22;11.02;;;3.35;;
12112;SDS011;6120;52.250;8.478;2023-12-20T02:08:50;11.83;;;2.70;;
12112;SDS011;6120;52.250;8.478;2023-12-20T02:11:16;12.00;;;3.65;;
12112;SDS011;6120;52.250;8.478;2023-12-20T02:13:44;9.68;;;2.90;;
12112;SDS011;6120;52.250;8.478;2023-12-20T02:16:10;10.27;;;2.83;;
12112;SDS011;6120;52.250;8.478;2023-12-20T02:18:37;14.50;;;2.95;;
12112;SDS011;6120;52.250;8.478;2023-12-20T02:21:05;12.15;;;3.17;;
12112;SDS011;6120;52.250;8.478;2023-12-20T02:23:32;15.97;;;2.93;;
12112;SDS011;6120;52.250;8.478;2023-12-20T02:25:58;11.13;;;2.70;;
12112;SDS011;6120;52.250;8.478;2023-12-20T02:28:25;13.02;;;2.65;;
12112;SDS011;6120;52.250;8.478;2023-12-20T02:30:53;11.23;;;2.40;;
12112;SDS011;6120;52.250;8.478;2023-12-20T02:33:20;18.88;;;2.45;;
12112;SDS011;6120;52.250;8.478;2023-12-20T02:35:46;13.52;;;2.47;;
12112;SDS011;6120;52.250;8.478;2023-12-20T02:38:14;11.65;;;2.80;;
12112;SDS011;6120;52.250;8.478;2023-12-20T02:40:40;14.35;;;3.25;;
12112;SDS011;6120;52.250;8.478;2023-12-20T02:43:15;14.07;;;2.83;;
12112;SDS011;6120;52.250;8.478;2023-12-20T02:45:42;12.40;;;3.22;;
12112;SDS011;6120;52.250;8.478;2023-12-20T02:48:09;14.05;;;2.70;;
12112;SDS011;6120;52.250;8.478;2023-12-20T02:50:35;11.45;;;3.10;;
12112;SDS011;6120;52.250;8.478;2023-12-20T02:53:02;11.35;;;2.83;;
12112;SDS011;6120;52.250;8.478;2023-12-20T02:55:29;13.98;;;3.00;;
12112;SDS011;6120;52.250;8.478;2023-12-20T02:57:56;19.98;;;3.17;;
12112;SDS011;6120;52.250;8.478;2023-12-20T03:00:22;12.85;;;3.22;;
12112;SDS011;6120;52.250;8.478;2023-12-20T03:02:49;12.70;;;4.35;;
12112;SDS011;6120;52.250;8.478;2023-12-20T03:05:16;17.77;;;3.53;;
12112;SDS011;6120;52.250;8.478;2023-12-20T03:07:43;14.00;;;4.22;;
12112;SDS011;6120;52.250;8.478;2023-12-20T03:10:10;17.10;;;3.80;;
12112;SDS011;6120;52.250;8.478;2023-12-20T03:12:48;17.02;;;4.57;;
12112;SDS011;6120;52.250;8.478;2023-12-20T03:15:15;15.68;;;4.32;;
12112;SDS011;6120;52.250;8.478;2023-12-20T03:17:42;16.88;;;4.90;;
12112;SDS011;6120;52.250;8.478;2023-12-20T03:20:09;15.55;;;4.32;;
12112;SDS011;6120;52.250;8.478;2023-12-20T03:22:36;12.75;;;3.95;;
12112;SDS011;6120;52.250;8.478;2023-12-20T03:25:03;15.43;;;4.70;;
12112;SDS011;6120;52.250;8.478;2023-12-20T03:27:30;15.88;;;4.78;;
12112;SDS011;6120;52.250;8.478;2023-12-20T03:29:56;15.25;;;4.30;;
12112;SDS011;6120;52.250;8.478;2023-12-20T03:32:23;16.60;;;4.65;;
12112;SDS011;6120;52.250;8.478;2023-12-20T03:34:50;17.05;;;4.47;;
12112;SDS011;6120;52.250;8.478;2023-12-20T03:37:16;14.02;;;4.35;;
12112;SDS011;6120;52.250;8.478;2023-12-20T03:39:43;18.23;;;4.72;;
12112;SDS011;6120;52.250;8.478;2023-12-20T03:42:10;14.50;;;4.82;;
12112;SDS011;6120;52.250;8.478;2023-12-20T03:44:38;18.50;;;4.35;;
12112;SDS011;6120;52.250;8.478;2023-12-20T03:47:06;19.65;;;5.72;;
12112;SDS011;6120;52.250;8.478;2023-12-20T03:49:33;13.38;;;4.47;;
12112;SDS011;6120;52.250;8.478;2023-12-20T03:51:59;18.00;;;4.80;;
12112;SDS011;6120;52.250;8.478;2023-12-20T03:54:26;21.42;;;5.53;;
12112;SDS011;6120;52.250;8.478;2023-12-20T03:56:53;21.98;;;4.78;;
12112;SDS011;6120;52.250;8.478;2023-12-20T03:59:19;16.25;;;4.90;;
12112;SDS011;6120;52.250;8.478;2023-12-20T04:01:46;18.75;;;4.97;;
12112;SDS011;6120;52.250;8.478;2023-12-20T04:04:13;16.40;;;5.00;;
12112;SDS011;6120;52.250;8.478;2023-12-20T04:06:40;23.23;;;5.28;;
12112;SDS011;6120;52.250;8.478;2023-12-20T04:09:07;20.35;;;4.93;;
12112;SDS011;6120;52.250;8.478;2023-12-20T04:11:36;20.35;;;5.82;;
12112;SDS011;6120;52.250;8.478;2023-12-20T04:14:03;18.60;;;6.53;;
12112;SDS011;6120;52.250;8.478;2023-12-20T04:16:31;16.30;;;4.93;;
12112;SDS011;6120;52.250;8.478;2023-12-20T04:18:58;21.27;;;5.18;;
12112;SDS011;6120;52.250;8.478;2023-12-20T04:21:25;18.48;;;5.50;;
12112;SDS011;6120;52.250;8.478;2023-12-20T04:23:51;15.75;;;5.55;;
12112;SDS011;6120;52.250;8.478;2023-12-20T04:26:18;26.90;;;6.35;;
12112;SDS011;6120;52.250;8.478;2023-12-20T04:28:44;21.85;;;7.47;;
12112;SDS011;6120;52.250;8.478;2023-12-20T04:31:11;24.27;;;6.57;;
12112;SDS011;6120;52.250;8.478;2023-12-20T04:33:38;21.40;;;6.65;;
12112;SDS011;6120;52.250;8.478;2023-12-20T04:36:05;19.13;;;6.20;;
12112;SDS011;6120;52.250;8.478;2023-12-20T04:38:32;20.13;;;6.53;;
12112;SDS011;6120;52.250;8.478;2023-12-20T04:41:01;15.00;;;5.88;;
12112;SDS011;6120;52.250;8.478;2023-12-20T04:43:28;24.63;;;6.57;;
12112;SDS011;6120;52.250;8.478;2023-12-20T04:45:56;20.63;;;5.50;;
12112;SDS011;6120;52.250;8.478;2023-12-20T04:48:22;15.27;;;5.03;;
12112;SDS011;6120;52.250;8.478;2023-12-20T04:50:49;23.08;;;5.47;;
12112;SDS011;6120;52.250;8.478;2023-12-20T04:53:16;20.48;;;5.03;;
12112;SDS011;6120;52.250;8.478;2023-12-20T04:55:43;31.02;;;6.55;;
12112;SDS011;6120;52.250;8.478;2023-12-20T04:58:10;22.77;;;5.63;;
12112;SDS011;6120;52.250;8.478;2023-12-20T05:00:36;22.45;;;5.40;;
12112;SDS011;6120;52.250;8.478;2023-12-20T05:03:03;18.33;;;5.28;;
12112;SDS011;6120;52.250;8.478;2023-12-20T05:05:30;24.95;;;5.70;;
12112;SDS011;6120;52.250;8.478;2023-12-20T05:07:57;16.65;;;5.60;;
12112;SDS011;6120;52.250;8.478;2023-12-20T05:10:24;22.42;;;5.20;;
12112;SDS011;6120;52.250;8.478;2023-12-20T05:12:50;25.35;;;5.40;;
12112;SDS011;6120;52.250;8.478;2023-12-20T05:15:17;14.20;;;4.93;;
12112;SDS011;6120;52.250;8.478;2023-12-20T05:17:44;21.88;;;5.55;;
12112;SDS011;6120;52.250;8.478;2023-12-20T05:20:11;19.98;;;5.30;;
12112;SDS011;6120;52.250;8.478;2023-12-20T05:22:38;19.35;;;4.97;;
12112;SDS011;6120;52.250;8.478;2023-12-20T05:25:05;22.85;;;4.93;;
12112;SDS011;6120;52.250;8.478;2023-12-20T05:27:31;17.92;;;5.18;;
12112;SDS011;6120;52.250;8.478;2023-12-20T05:29:58;19.38;;;4.90;;
12112;SDS011;6120;52.250;8.478;2023-12-20T05:32:25;14.73;;;4.20;;
12112;SDS011;6120;52.250;8.478;2023-12-20T05:34:51;19.27;;;4.88;;
12112;SDS011;6120;52.250;8.478;2023-12-20T05:37:19;20.30;;;5.13;;
12112;SDS011;6120;52.250;8.478;2023-12-20T05:39:45;22.80;;;5.18;;
12112;SDS011;6120;52.250;8.478;2023-12-20T05:42:12;18.70;;;4.30;;
12112;SDS011;6120;52.250;8.478;2023-12-20T05:44:39;26.63;;;4.65;;
12112;SDS011;6120;52.250;8.478;2023-12-20T05:47:05;19.23;;;4.20;;
12112;SDS011;6120;52.250;8.478;2023-12-20T05:49:32;21.88;;;4.38;;
12112;SDS011;6120;52.250;8.478;2023-12-20T05:51:59;19.80;;;3.67;;
12112;SDS011;6120;52.250;8.478;2023-12-20T05:54:26;21.17;;;4.82;;
12112;SDS011;6120;52.250;8.478;2023-12-20T05:56:52;21.30;;;4.20;;
12112;SDS011;6120;52.250;8.478;2023-12-20T05:59:19;10.30;;;3.05;;
12112;SDS011;6120;52.250;8.478;2023-12-20T06:01:46;26.40;;;4.03;;
12112;SDS011;6120;52.250;8.478;2023-12-20T06:04:13;16.52;;;3.83;;
12112;SDS011;6120;52.250;8.478;2023-12-20T06:06:41;14.32;;;4.22;;
12112;SDS011;6120;52.250;8.478;2023-12-20T06:09:09;20.25;;;3.80;;
12112;SDS011;6120;52.250;8.478;2023-12-20T06:11:36;18.63;;;3.38;;
12112;SDS011;6120;52.250;8.478;2023-12-20T06:14:02;18.15;;;3.83;;
12112;SDS011;6120;52.250;8.478;2023-12-20T06:16:29;18.92;;;4.15;;
12112;SDS011;6120;52.250;8.478;2023-12-20T06:18:56;17.33;;;3.67;;
12112;SDS011;6120;52.250;8.478;2023-12-20T06:21:23;16.83;;;3.83;;
12112;SDS011;6120;52.250;8.478;2023-12-20T06:23:49;21.40;;;4.93;;
12112;SDS011;6120;52.250;8.478;2023-12-20T06:26:16;12.98;;;3.25;;
12112;SDS011;6120;52.250;8.478;2023-12-20T06:28:43;19.63;;;4.15;;
12112;SDS011;6120;52.250;8.478;2023-12-20T06:31:09;19.63;;;3.55;;
12112;SDS011;6120;52.250;8.478;2023-12-20T06:33:36;22.60;;;5.13;;
12112;SDS011;6120;52.250;8.478;2023-12-20T06:36:03;24.77;;;4.78;;
12112;SDS011;6120;52.250;8.478;2023-12-20T06:38:30;21.38;;;4.50;;
12112;SDS011;6120;52.250;8.478;2023-12-20T06:40:57;19.58;;;5.05;;
12112;SDS011;6120;52.250;8.478;2023-12-20T06:43:25;22.45;;;5.22;;
12112;SDS011;6120;52.250;8.478;2023-12-20T06:46:11;25.25;;;5.15;;
12112;SDS011;6120;52.250;8.478;2023-12-20T06:48:39;20.75;;;5.95;;
12112;SDS011;6120;52.250;8.478;2023-12-20T06:51:10;21.65;;;5.68;;
12112;SDS011;6120;52.250;8.478;2023-12-20T06:53:38;24.13;;;4.85;;
12112;SDS011;6120;52.250;8.478;2023-12-20T06:56:05;23.15;;;5.30;;
12112;SDS011;6120;52.250;8.478;2023-12-20T06:58:32;21.20;;;4.97;;
12112;SDS011;6120;52.250;8.478;2023-12-20T07:00:59;18.42;;;5.95;;
12112;SDS011;6120;52.250;8.478;2023-12-20T07:03:25;26.98;;;6.20;;
12112;SDS011;6120;52.250;8.478;2023-12-20T07:05:52;19.30;;;5.22;;
12112;SDS011;6120;52.250;8.478;2023-12-20T07:08:19;26.10;;;5.13;;
12112;SDS011;6120;52.250;8.478;2023-12-20T07:10:45;17.10;;;4.97;;
12112;SDS011;6120;52.250;8.478;2023-12-20T07:13:12;24.00;;;5.82;;
12112;SDS011;6120;52.250;8.478;2023-12-20T07:15:39;16.80;;;5.00;;
12112;SDS011;6120;52.250;8.478;2023-12-20T07:18:06;24.00;;;5.78;;
12112;SDS011;6120;52.250;8.478;2023-12-20T07:20:33;21.55;;;5.10;;
12112;SDS011;6120;52.250;8.478;2023-12-20T07:23:00;18.25;;;5.30;;
12112;SDS011;6120;52.250;8.478;2023-12-20T07:25:27;12.18;;;4.68;;
12112;SDS011;6120;52.250;8.478;2023-12-20T07:27:54;23.15;;;5.05;;
12112;SDS011;6120;52.250;8.478;2023-12-20T07:30:21;23.83;;;5.50;;
12112;SDS011;6120;52.250;8.478;2023-12-20T07:32:47;30.25;;;4.88;;
12112;SDS011;6120;52.250;8.478;2023-12-20T07:35:17;20.27;;;5.53;;
12112;SDS011;6120;52.250;8.478;2023-12-20T07:37:44;30.42;;;6.45;;
12112;SDS011;6120;52.250;8.478;2023-12-20T07:40:11;17.98;;;4.63;;
12112;SDS011;6120;52.250;8.478;2023-12-20T07:42:38;19.67;;;5.43;;
12112;SDS011;6120;52.250;8.478;2023-12-20T07:45:05;24.27;;;6.47;;
12112;SDS011;6120;52.250;8.478;2023-12-20T07:47:31;23.42;;;5.50;;
12112;SDS011;6120;52.250;8.478;2023-12-20T07:49:58;29.33;;;5.70;;
12112;SDS011;6120;52.250;8.478;2023-12-20T07:52:25;20.50;;;5.55;;
12112;SDS011;6120;52.250;8.478;2023-12-20T07:54:52;24.80;;;5.22;;
12112;SDS011;6120;52.250;8.478;2023-12-20T07:57:19;24.17;;;5.63;;
12112;SDS011;6120;52.250;8.478;2023-12-20T07:59:46;22.40;;;5.13;;
12112;SDS011;6120;52.250;8.478;2023-12-20T08:02:12;23.02;;;5.38;;
12112;SDS011;6120;52.250;8.478;2023-12-20T08:04:41;27.15;;;5.55;;
12112;SDS011;6120;52.250;8.478;2023-12-20T08:07:08;23.77;;;6.30;;
12112;SDS011;6120;52.250;8.478;2023-12-20T08:09:35;25.23;;;5.75;;
12112;SDS011;6120;52.250;8.478;2023-12-20T08:12:03;26.45;;;5.65;;
12112;SDS011;6120;52.250;8.478;2023-12-20T08:14:30;23.42;;;5.15;;
12112;SDS011;6120;52.250;8.478;2023-12-20T08:16:57;23.17;;;4.88;;
12112;SDS011;6120;52.250;8.478;2023-12-20T08:19:24;27.13;;;5.53;;
12112;SDS011;6120;52.250;8.478;2023-12-20T08:21:51;17.02;;;5.30;;
12112;SDS011;6120;52.250;8.478;2023-12-20T08:24:18;24.77;;;4.75;;
12112;SDS011;6120;52.250;8.478;2023-12-20T08:26:44;18.65;;;4.47;;
12112;SDS011;6120;52.250;8.478;2023-12-20T08:29:13;20.48;;;4.50;;
12112;SDS011;6120;52.250;8.478;2023-12-20T08:31:40;24.87;;;4.80;;
12112;SDS011;6120;52.250;8.478;2023-12-20T08:34:06;22.90;;;4.28;;
12112;SDS011;6120;52.250;8.478;2023-12-20T08:36:34;21.75;;;5.40;;
12112;SDS011;6120;52.250;8.478;2023-12-20T08:39:01;19.48;;;5.13;;
12112;SDS011;6120;52.250;8.478;2023-12-20T08:41:29;15.43;;;4.65;;
12112;SDS011;6120;52.250;8.478;2023-12-20T08:43:56;20.27;;;4.25;;
12112;SDS011;6120;52.250;8.478;2023-12-20T08:46:23;15.63;;;3.95;;
12112;SDS011;6120;52.250;8.478;2023-12-20T08:48:50;20.33;;;4.30;;
12112;SDS011;6120;52.250;8.478;2023-12-20T08:51:17;26.23;;;4.25;;
12112;SDS011;6120;52.250;8.478;2023-12-20T08:53:46;22.02;;;4.35;;
12112;SDS011;6120;52.250;8.478;2023-12-20T08:56:15;14.32;;;3.97;;
12112;SDS011;6120;52.250;8.478;2023-12-20T08:58:41;19.63;;;3.88;;
12112;SDS011;6120;52.250;8.478;2023-12-20T09:01:08;17.33;;;4.50;;
12112;SDS011;6120;52.250;8.478;2023-12-20T09:03:35;21.40;;;3.88;;
12112;SDS011;6120;52.250;8.478;2023-12-20T09:06:02;24.00;;;4.82;;
12112;SDS011;6120;52.250;8.478;2023-12-20T09:08:29;18.23;;;3.75;;
12112;SDS011;6120;52.250;8.478;2023-12-20T09:10:56;22.35;;;4.45;;
12112;SDS011;6120;52.250;8.478;2023-12-20T09:13:23;17.85;;;4.20;;
12112;SDS011;6120;52.250;8.478;2023-12-20T09:15:58;19.73;;;4.55;;
12112;SDS011;6120;52.250;8.478;2023-12-20T09:18:25;20.73;;;4.80;;
12112;SDS011;6120;52.250;8.478;2023-12-20T09:20:52;22.60;;;4.20;;
12112;SDS011;6120;52.250;8.478;2023-12-20T09:23:19;19.02;;;4.40;;
12112;SDS011;6120;52.250;8.478;2023-12-20T09:25:45;19.88;;;4.18;;
12112;SDS011;6120;52.250;8.478;2023-12-20T09:28:13;23.48;;;4.40;;
12112;SDS011;6120;52.250;8.478;2023-12-20T09:30:41;16.33;;;5.78;;
12112;SDS011;6120;52.250;8.478;2023-12-20T09:33:11;27.25;;;5.75;;
12112;SDS011;6120;52.250;8.478;2023-12-20T09:35:39;24.52;;;5.65;;
12112;SDS011;6120;52.250;8.478;2023-12-20T09:38:08;24.50;;;4.95;;
12112;SDS011;6120;52.250;8.478;2023-12-20T09:40:36;24.10;;;5.65;;
12112;SDS011;6120;52.250;8.478;2023-12-20T09:43:13;20.42;;;5.68;;
12112;SDS011;6120;52.250;8.478;2023-12-20T09:45:44;23.30;;;5.57;;
12112;SDS011;6120;52.250;8.478;2023-12-20T09:48:15;30.23;;;5.72;;
12112;SDS011;6120;52.250;8.478;2023-12-20T09:50:44;24.90;;;5.55;;
12112;SDS011;6120;52.250;8.478;2023-12-20T09:53:19;21.77;;;5.40;;
12112;SDS011;6120;52.250;8.478;2023-12-20T09:55:46;28.70;;;6.75;;
12112;SDS011;6120;52.250;8.478;2023-12-20T09:58:14;22.15;;;6.00;;
12112;SDS011;6120;52.250;8.478;2023-12-20T10:00:42;32.38;;;6.50;;
12112;SDS011;6120;52.250;8.478;2023-12-20T10:03:10;22.92;;;5.90;;
12112;SDS011;6120;52.250;8.478;2023-12-20T10:05:38;24.25;;;6.32;;
12112;SDS011;6120;52.250;8.478;2023-12-20T10:08:06;18.85;;;5.50;;
12112;SDS011;6120;52.250;8.478;2023-12-20T10:10:33;23.70;;;6.47;;
12112;SDS011;6120;52.250;8.478;2023-12-20T10:13:12;24.95;;;6.28;;
12112;SDS011;6120;52.250;8.478;2023-12-20T10:15:40;29.60;;;7.25;;
12112;SDS011;6120;52.250;8.478;2023-12-20T10:20:35;21.05;;;7.20;;
12112;SDS011;6120;52.250;8.478;2023-12-20T10:23:02;27.98;;;6.57;;
12112;SDS011;6120;52.250;8.478;2023-12-20T10:25:29;26.33;;;6.20;;
12112;SDS011;6120;52.250;8.478;2023-12-20T10:30:41;21.55;;;5.78;;
12112;SDS011;6120;52.250;8.478;2023-12-20T10:33:09;16.40;;;5.95;;
12112;SDS011;6120;52.250;8.478;2023-12-20T10:35:37;21.75;;;5.55;;
12112;SDS011;6120;52.250;8.478;2023-12-20T10:38:10;12.18;;;4.82;;
12112;SDS011;6120;52.250;8.478;2023-12-20T10:40:37;21.30;;;5.55;;
12112;SDS011;6120;52.250;8.478;2023-12-20T10:43:05;22.13;;;5.97;;
12112;SDS011;6120;52.250;8.478;2023-12-20T10:45:32;25.67;;;4.85;;
12112;SDS011;6120;52.250;8.478;2023-12-20T10:47:59;21.00;;;5.35;;
12112;SDS011;6120;52.250;8.478;2023-12-20T10:50:26;15.55;;;5.47;;
12112;SDS011;6120;52.250;8.478;2023-12-20T10:52:55;21.08;;;4.85;;
12112;SDS011;6120;52.250;8.478;2023-12-20T10:55:23;13.83;;;5.73;;
12112;SDS011;6120;52.250;8.478;2023-12-20T11:00:49;14.95;;;4.00;;
12112;SDS011;6120;52.250;8.478;2023-12-20T11:03:21;15.70;;;3.50;;
12112;SDS011;6120;52.250;8.478;2023-12-20T11:05:54;15.82;;;4.43;;
12112;SDS011;6120;52.250;8.478;2023-12-20T11:08:37;11.18;;;2.85;;
12112;SDS011;6120;52.250;8.478;2023-12-20T11:11:13;13.82;;;3.30;;
12112;SDS011;6120;52.250;8.478;2023-12-20T11:13:58;9.75;;;2.63;;
12112;SDS011;6120;52.250;8.478;2023-12-20T11:16:25;12.27;;;2.60;;
12112;SDS011;6120;52.250;8.478;2023-12-20T11:19:06;14.35;;;2.90;;
12112;SDS011;6120;52.250;8.478;2023-12-20T11:21:33;11.45;;;2.70;;
12112;SDS011;6120;52.250;8.478;2023-12-20T11:24:00;14.73;;;2.92;;
12112;SDS011;6120;52.250;8.478;2023-12-20T11:26:28;12.23;;;3.00;;
12112;SDS011;6120;52.250;8.478;2023-12-20T11:32:03;13.52;;;3.40;;
12112;SDS011;6120;52.250;8.478;2023-12-20T11:34:56;14.50;;;2.45;;
12112;SDS011;6120;52.250;8.478;2023-12-20T11:37:33;11.57;;;2.60;;
12112;SDS011;6120;52.250;8.478;2023-12-20T11:40:03;12.60;;;2.70;;
12112;SDS011;6120;52.250;8.478;2023-12-20T11:42:38;8.18;;;2.67;;
12112;SDS011;6120;52.250;8.478;2023-12-20T11:45:09;12.70;;;3.03;;
12112;SDS011;6120;52.250;8.478;2023-12-20T11:47:37;10.00;;;2.40;;
12112;SDS011;6120;52.250;8.478;2023-12-20T11:50:04;16.50;;;3.97;;
12112;SDS011;6120;52.250;8.478;2023-12-20T11:52:32;14.50;;;2.93;;
12112;SDS011;6120;52.250;8.478;2023-12-20T11:54:59;11.38;;;3.38;;
12112;SDS011;6120;52.250;8.478;2023-12-20T11:57:26;16.20;;;4.18;;
12112;SDS011;6120;52.250;8.478;2023-12-20T11:59:54;18.60;;;3.03;;
12112;SDS011;6120;52.250;8.478;2023-12-20T12:02:20;18.55;;;3.60;;
12112;SDS011;6120;52.250;8.478;2023-12-20T12:04:50;13.10;;;3.72;;
12112;SDS011;6120;52.250;8.478;2023-12-20T12:07:17;14.25;;;3.28;;
12112;SDS011;6120;52.250;8.478;2023-12-20T12:09:44;17.23;;;4.30;;
12112;SDS011;6120;52.250;8.478;2023-12-20T12:12:13;8.48;;;2.42;;
12112;SDS011;6120;52.250;8.478;2023-12-20T12:14:40;13.73;;;2.80;;
12112;SDS011;6120;52.250;8.478;2023-12-20T12:17:13;5.72;;;2.42;;
12112;SDS011;6120;52.250;8.478;2023-12-20T12:19:40;9.68;;;2.53;;
12112;SDS011;6120;52.250;8.478;2023-12-20T12:22:08;8.93;;;2.37;;
12112;SDS011;6120;52.250;8.478;2023-12-20T12:24:42;11.30;;;2.35;;
12112;SDS011;6120;52.250;8.478;2023-12-20T12:27:09;9.93;;;2.70;;
12112;SDS011;6120;52.250;8.478;2023-12-20T12:29:36;5.80;;;1.70;;
12112;SDS011;6120;52.250;8.478;2023-12-20T12:32:07;6.00;;;1.92;;
12112;SDS011;6120;52.250;8.478;2023-12-20T12:34:35;10.43;;;2.63;;
12112;SDS011;6120;52.250;8.478;2023-12-20T12:37:06;6.50;;;1.27;;
12112;SDS011;6120;52.250;8.478;2023-12-20T12:39:33;8.00;;;1.38;;
12112;SDS011;6120;52.250;8.478;2023-12-20T12:42:00;5.90;;;1.50;;
12112;SDS011;6120;52.250;8.478;2023-12-20T12:44:27;7.57;;;1.65;;
12112;SDS011;6120;52.250;8.478;2023-12-20T12:46:54;10.00;;;1.90;;
12112;SDS011;6120;52.250;8.478;2023-12-20T12:49:21;4.65;;;1.45;;
12112;SDS011;6120;52.250;8.478;2023-12-20T12:51:48;5.75;;;1.73;;
12112;SDS011;6120;52.250;8.478;2023-12-20T12:54:15;3.95;;;1.20;;
12112;SDS011;6120;52.250;8.478;2023-12-20T12:56:43;6.50;;;1.33;;
12112;SDS011;6120;52.250;8.478;2023-12-20T12:59:10;7.00;;;1.23;;
12112;SDS011;6120;52.250;8.478;2023-12-20T13:01:37;9.02;;;1.40;;
12112;SDS011;6120;52.250;8.478;2023-12-20T13:04:05;7.45;;;1.35;;
12112;SDS011;6120;52.250;8.478;2023-12-20T13:06:37;8.73;;;1.63;;
12112;SDS011;6120;52.250;8.478;2023-12-20T13:09:04;7.57;;;1.45;;
12112;SDS011;6120;52.250;8.478;2023-12-20T13:11:31;7.50;;;1.25;;
12112;SDS011;6120;52.250;8.478;2023-12-20T13:13:58;8.50;;;1.20;;
12112;SDS011;6120;52.250;8.478;2023-12-20T13:16:24;7.82;;;1.20;;
12112;SDS011;6120;52.250;8.478;2023-12-20T13:18:51;7.85;;;1.40;;
12112;SDS011;6120;52.250;8.478;2023-12-20T13:21:18;4.95;;;1.30;;
12112;SDS011;6120;52.250;8.478;2023-12-20T13:23:45;6.53;;;1.30;;
12112;SDS011;6120;52.250;8.478;2023-12-20T13:26:11;9.02;;;2.47;;
12112;SDS011;6120;52.250;8.478;2023-12-20T13:28:38;7.43;;;1.50;;
12112;SDS011;6120;52.250;8.478;2023-12-20T13:31:05;11.07;;;1.30;;
12112;SDS011;6120;52.250;8.478;2023-12-20T13:33:32;12.30;;;1.58;;
12112;SDS011;6120;52.250;8.478;2023-12-20T13:36:00;6.82;;;1.45;;
12112;SDS011;6120;52.250;8.478;2023-12-20T13:38:31;8.35;;;1.23;;
12112;SDS011;6120;52.250;8.478;2023-12-20T13:40:57;5.13;;;1.10;;
12112;SDS011;6120;52.250;8.478;2023-12-20T13:43:25;7.45;;;1.48;;
12112;SDS011;6120;52.250;8.478;2023-12-20T13:45:51;7.82;;;1.73;;
12112;SDS011;6120;52.250;8.478;2023-12-20T13:48:18;9.20;;;1.70;;
12112;SDS011;6120;52.250;8.478;2023-12-20T13:50:45;11.80;;;1.73;;
12112;SDS011;6120;52.250;8.478;2023-12-20T13:53:12;8.20;;;1.50;;
12112;SDS011;6120;52.250;8.478;2023-12-20T13:55:39;8.38;;;1.75;;
12112;SDS011;6120;52.250;8.478;2023-12-20T13:58:06;7.60;;;1.50;;
12112;SDS011;6120;52.250;8.478;2023-12-20T14:00:33;8.02;;;1.52;;
12112;SDS011;6120;52.250;8.478;2023-12-20T14:03:00;9.65;;;1.50;;
12112;SDS011;6120;52.250;8.478;2023-12-20T14:05:28;10.23;;;2.00;;
12112;SDS011;6120;52.250;8.478;2023-12-20T14:07:55;8.95;;;1.60;;
12112;SDS011;6120;52.250;8.478;2023-12-20T14:10:24;6.75;;;1.50;;
12112;SDS011;6120;52.250;8.478;2023-12-20T14:12:54;9.60;;;1.52;;
12112;SDS011;6120;52.250;8.478;2023-12-20T14:15:21;11.35;;;1.58;;
12112;SDS011;6120;52.250;8.478;2023-12-20T14:17:51;10.63;;;1.80;;
12112;SDS011;6120;52.250;8.478;2023-12-20T14:20:19;8.27;;;1.83;;
12112;SDS011;6120;52.250;8.478;2023-12-20T14:22:45;9.57;;;1.58;;
12112;SDS011;6120;52.250;8.478;2023-12-20T14:25:13;5.50;;;1.35;;
12112;SDS011;6120;52.250;8.478;2023-12-20T14:27:41;12.48;;;1.92;;
12112;SDS011;6120;52.250;8.478;2023-12-20T14:30:11;12.68;;;1.73;;
12112;SDS011;6120;52.250;8.478;2023-12-20T14:32:41;9.43;;;2.15;;
12112;SDS011;6120;52.250;8.478;2023-12-20T14:35:08;6.97;;;1.40;;
12112;SDS011;6120;52.250;8.478;2023-12-20T14:37:35;11.23;;;1.45;;
12112;SDS011;6120;52.250;8.478;2023-12-20T14:40:09;8.77;;;1.75;;
12112;SDS011;6120;52.250;8.478;2023-12-20T14:42:44;6.47;;;1.23;;
12112;SDS011;6120;52.250;8.478;2023-12-20T14:45:12;10.27;;;1.42;;
12112;SDS011;6120;52.250;8.478;2023-12-20T14:47:40;7.68;;;1.85;;
12112;SDS011;6120;52.250;8.478;2023-12-20T14:50:07;5.75;;;1.15;;
12112;SDS011;6120;52.250;8.478;2023-12-20T14:52:34;4.53;;;1.10;;
12112;SDS011;6120;52.250;8.478;2023-12-20T14:55:01;3.85;;;1.15;;
12112;SDS011;6120;52.250;8.478;2023-12-20T14:57:31;9.02;;;1.40;;
12112;SDS011;6120;52.250;8.478;2023-12-20T14:59:58;7.22;;;1.50;;
12112;SDS011;6120;52.250;8.478;2023-12-20T15:02:25;8.07;;;1.52;;
12112;SDS011;6120;52.250;8.478;2023-12-20T15:04:51;6.28;;;1.35;;